Time;durP1;ratioP1;P1;durP2;ratioP2;P2;SDS_P1;SDS_P2;PMS_P1;PMS_P2;Temp;Humidity;BMP_temperature;BMP_pressure;BME280_temperature;BME280_humidity;BME280_pressure;Samples;Min_cycle;Max_cycle;Signal;HPM_P1;HPM_P2
2021/12/13 00:00:20;;;;;;;;;;;;;;;21.38;25.78;96525.47;1015988;29;1051;-42
2021/12/13 00:00:54;;;;;;;;;;;;;;;21.38;25.87;96524.69;1017831;29;2191;-43
2021/12/13 00:01:50;;;;;;;;;;;;;;;21.39;25.87;96528.91;1016909;29;1627;-43
2021/12/13 00:02:21;;;;;;;;;;;;;;;21.39;25.68;96526.28;1012414;29;1464;-42
2021/12/13 00:02:51;;;;;;;;;;;;;;;21.39;25.84;96526.28;1011722;29;2020;-43
2021/12/13 00:03:25;;;;;;;;;;;;;;;21.38;25.66;96524.69;1012775;29;1039;-43
2021/12/13 00:04:09;;;;;;;;;;;;;;;21.38;25.84;96525.47;1016185;29;1260;-43
2021/12/13 00:04:41;;;;;;;;;;;;;;;21.38;25.88;96530.75;1013090;29;1166;-48
2021/12/13 00:05:14;;;;;;;;;;;;;;;21.37;25.59;96525.75;1016181;29;953;-46
2021/12/13 00:05:51;;;;;;;;;;;;;;;21.39;26.37;96540.22;1011976;29;1903;-43
2021/12/13 00:06:26;;;;;;;;;;;;;;;21.39;25.91;96532.31;1012267;29;1022;-46
2021/12/13 00:06:57;;;;;;;;;;;;;;;21.42;26.20;96533.66;1008563;29;1166;-44
2021/12/13 00:07:29;;;;;;;;;;;;;;;21.40;25.81;96527.84;1009300;29;1799;-46
2021/12/13 00:08:01;;;;;;;;;;;;;;;21.40;25.60;96533.13;1011888;29;1992;-39
2021/12/13 00:08:32;;;;;;;;;;;;;;;21.39;25.79;96536.81;1012119;29;1088;-43
2021/12/13 00:09:05;;;;;;;;;;;;;;;21.40;25.59;96535.75;1015374;29;1553;-39
2021/12/13 00:09:39;;;;;;;;;;;;;;;21.39;25.68;96542.09;1015421;29;1904;-41
2021/12/13 00:10:11;;;;;;;;;;;;;;;21.38;25.92;96535.22;1015585;29;1570;-42
2021/12/13 00:10:49;;;;;;;;;;;;;;;21.38;25.79;96536.03;1014464;29;1166;-41
2021/12/13 00:11:21;;;;;;;;;;;;;;;21.39;25.74;96537.59;1015346;29;1192;-39
2021/12/13 00:11:55;;;;;;;;;;;;;;;21.39;25.80;96537.59;1014716;29;1142;-39
2021/12/13 00:12:33;;;;;;;;;;;;;;;21.39;25.65;96545.50;1011728;29;1862;-42
2021/12/13 00:13:14;;;;;;;;;;;;;;;21.41;25.85;96537.34;1012255;29;1159;-40
2021/12/13 00:13:52;;;;;;;;;;;;;;;21.41;25.81;96542.63;1013634;29;1395;-43
2021/12/13 00:14:33;;;;;;;;;;;;;;;21.39;25.96;96537.59;1016233;29;1678;-39
2021/12/13 00:15:04;;;;;;;;;;;;;;;21.40;25.91;96541.84;1016066;29;1295;-39
2021/12/13 00:15:43;;;;;;;;;;;;;;;21.42;25.64;96541.56;1012308;29;1191;-42
2021/12/13 00:16:14;;;;;;;;;;;;;;;21.42;26.04;96538.94;1012508;29;1095;-44
2021/12/13 00:16:45;;;;;;;;;;;;;;;21.42;25.84;96536.28;1012147;29;1437;-41
2021/12/13 00:17:17;;;;;;;;;;;;;;;21.42;25.51;96545.00;1011469;29;1933;-40
2021/12/13 00:17:50;;;;;;;;;;;;;;;21.42;25.67;96541.56;1011218;29;2264;-39
2021/12/13 00:18:22;;;;;;;;;;;;;;;21.42;25.91;96538.94;1012297;29;986;-42
2021/12/13 00:18:58;;;;;;;;;;;;;;;21.39;26.00;96542.88;1007762;29;2009;-40
2021/12/13 00:19:39;;;;;;;;;;;;;;;21.38;25.86;96535.22;1008304;29;1852;-40
2021/12/13 00:20:09;;;;;;;;;;;;;;;21.39;25.92;96540.22;1012304;29;973;-41
2021/12/13 00:20:44;;;;;;;;;;;;;;;21.39;25.80;96536.81;1012659;29;1111;-39
2021/12/13 00:21:15;;;;;;;;;;;;;;;21.39;25.82;96537.59;1012355;29;1141;-39
2021/12/13 00:21:47;;;;;;;;;;;;;;;21.39;25.84;96534.19;1012227;29;1400;-40
2021/12/13 00:22:19;;;;;;;;;;;;;;;21.41;25.75;96540.00;1012433;29;950;-41
2021/12/13 00:22:50;;;;;;;;;;;;;;;21.40;25.92;96538.41;1011524;29;2140;-40
2021/12/13 00:23:22;;;;;;;;;;;;;;;21.39;25.82;96537.59;1012157;29;1025;-39
2021/12/13 00:23:55;;;;;;;;;;;;;;;21.39;25.78;96534.97;1012417;29;1402;-41
2021/12/13 00:24:26;;;;;;;;;;;;;;;21.41;25.91;96534.72;1016220;29;1157;-39
2021/12/13 00:24:57;;;;;;;;;;;;;;;21.39;25.79;96534.19;1016236;29;1142;-41
2021/12/13 00:25:28;;;;;;;;;;;;;;;21.39;25.63;96536.81;1015892;29;1977;-39
2021/12/13 00:25:59;;;;;;;;;;;;;;;21.39;25.70;96531.56;1015651;29;1146;-39
2021/12/13 00:26:33;;;;;;;;;;;;;;;21.39;25.96;96539.47;1012455;29;1037;-40
2021/12/13 00:27:25;;;;;;;;;;;;;;;21.39;26.02;96534.19;1007588;29;1944;-40
2021/12/13 00:27:59;;;;;;;;;;;;;;;21.39;25.71;96532.31;1003842;29;2221;-39
2021/12/13 00:28:33;;;;;;;;;;;;;;;21.39;25.73;96531.56;1011916;29;1206;-42
2021/12/13 00:29:15;;;;;;;;;;;;;;;21.38;25.99;96533.38;1012525;29;1023;-42
2021/12/13 00:29:50;;;;;;;;;;;;;;;21.40;25.80;96533.91;1013653;29;1111;-42
2021/12/13 00:30:29;;;;;;;;;;;;;;;21.38;26.01;96527.31;1014718;29;2142;-39
2021/12/13 00:31:12;;;;;;;;;;;;;;;21.39;25.73;96528.91;1012582;29;2075;-42
2021/12/13 00:31:43;;;;;;;;;;;;;;;21.41;25.78;96540.00;1014161;29;2166;-39
2021/12/13 00:32:22;;;;;;;;;;;;;;;21.40;26.00;96527.84;1013933;29;1943;-42
2021/12/13 00:33:07;;;;;;;;;;;;;;;21.40;25.54;96531.28;1013922;29;2280;-38
2021/12/13 00:33:41;;;;;;;;;;;;;;;21.38;26.10;96528.13;1010984;29;1937;-41
2021/12/13 00:34:26;;;;;;;;;;;;;;;21.40;25.66;96533.13;1011020;29;1917;-43
2021/12/13 00:35:00;;;;;;;;;;;;;;;21.40;25.80;96533.91;1010557;29;2385;-41
2021/12/13 00:35:35;;;;;;;;;;;;;;;21.39;25.75;96536.81;1009778;29;1939;-42
2021/12/13 00:36:15;;;;;;;;;;;;;;;21.37;25.73;96531.03;1010830;29;2243;-44
2021/12/13 00:36:48;;;;;;;;;;;;;;;21.38;25.86;96529.94;1010637;29;1849;-46
2021/12/13 00:37:20;;;;;;;;;;;;;;;21.38;25.92;96533.38;1011285;29;2154;-41
2021/12/13 00:37:57;;;;;;;;;;;;;;;21.38;25.79;96536.03;1011201;29;2116;-42
2021/12/13 00:38:29;;;;;;;;;;;;;;;21.38;25.73;96529.94;1012185;29;1044;-42
2021/12/13 00:39:03;;;;;;;;;;;;;;;21.38;25.84;96529.94;1013734;29;1044;-44
2021/12/13 00:39:36;;;;;;;;;;;;;;;21.38;25.91;96537.84;1014549;29;969;-44
2021/12/13 00:40:14;;;;;;;;;;;;;;;21.38;25.89;96535.22;1012320;29;839;-42
2021/12/13 00:40:47;;;;;;;;;;;;;;;21.37;25.63;96531.78;1010364;29;2179;-43
2021/12/13 00:41:20;;;;;;;;;;;;;;;21.38;25.52;96536.03;1010684;29;1827;-42
2021/12/13 00:41:50;;;;;;;;;;;;;;;21.38;25.63;96536.03;1011430;29;1930;-40
2021/12/13 00:42:21;;;;;;;;;;;;;;;21.38;25.64;96536.03;1010631;29;2357;-46
2021/12/13 00:42:51;;;;;;;;;;;;;;;21.38;25.60;96533.38;1010317;29;2159;-39
2021/12/13 00:43:23;;;;;;;;;;;;;;;21.39;25.98;96537.59;1012058;29;1760;-45
2021/12/13 00:44:04;;;;;;;;;;;;;;;21.39;25.74;96534.97;1010108;29;2092;-47
2021/12/13 00:44:38;;;;;;;;;;;;;;;21.39;25.87;96534.19;1010255;29;1907;-42
2021/12/13 00:45:10;;;;;;;;;;;;;;;21.39;25.99;96536.81;1010853;29;2155;-42
2021/12/13 00:45:47;;;;;;;;;;;;;;;21.41;26.15;96540.00;1013711;29;2413;-41
2021/12/13 00:46:17;;;;;;;;;;;;;;;21.41;25.74;96534.72;1015823;29;1673;-45
2021/12/13 00:46:49;;;;;;;;;;;;;;;21.41;25.80;96540.00;1010249;29;1397;-44
2021/12/13 00:47:21;;;;;;;;;;;;;;;21.39;25.84;96534.97;1012269;29;1210;-41
2021/12/13 00:47:51;;;;;;;;;;;;;;;21.40;25.60;96539.19;1011025;29;2222;-44
2021/12/13 00:48:22;;;;;;;;;;;;;;;21.39;25.86;96540.22;1011860;29;1133;-42
2021/12/13 00:48:53;;;;;;;;;;;;;;;21.41;25.80;96542.63;1012709;29;1142;-47
2021/12/13 00:49:25;;;;;;;;;;;;;;;21.40;25.71;96538.41;1012437;29;1025;-44
2021/12/13 00:49:57;;;;;;;;;;;;;;;21.40;25.78;96538.41;1012216;29;1218;-44
2021/12/13 00:50:34;;;;;;;;;;;;;;;21.40;25.73;96541.84;1012131;29;1044;-45
2021/12/13 00:51:05;;;;;;;;;;;;;;;21.39;25.57;96539.47;1012127;29;1037;-47
2021/12/13 00:51:37;;;;;;;;;;;;;;;21.40;26.00;96538.41;1011361;29;1400;-44
2021/12/13 00:52:07;;;;;;;;;;;;;;;21.39;25.91;96536.81;1007478;29;1581;-48
2021/12/13 00:52:38;;;;;;;;;;;;;;;21.40;25.75;96544.47;1008051;29;1215;-41
2021/12/13 00:53:08;;;;;;;;;;;;;;;21.40;25.97;96544.47;1008808;29;1060;-43
2021/12/13 00:53:39;;;;;;;;;;;;;;;21.41;25.98;96543.41;1012345;29;1194;-41
2021/12/13 00:54:17;;;;;;;;;;;;;;;21.40;25.75;96544.47;1018456;29;1419;-41
2021/12/13 00:54:48;;;;;;;;;;;;;;;21.39;25.87;96547.38;1014488;29;1162;-42
2021/12/13 00:55:20;;;;;;;;;;;;;;;21.40;25.77;96541.84;1012438;29;825;-44
2021/12/13 00:55:51;;;;;;;;;;;;;;;21.41;25.77;96545.28;1013881;29;1123;-47
2021/12/13 00:56:40;;;;;;;;;;;;;;;21.39;25.66;96539.47;1016461;29;921;-44
2021/12/13 00:57:19;;;;;;;;;;;;;;;21.39;25.95;96542.09;1019834;29;1415;-44
2021/12/13 00:57:50;;;;;;;;;;;;;;;21.40;25.86;96544.47;1016030;29;1446;-44
2021/12/13 00:58:22;;;;;;;;;;;;;;;21.40;26.13;96541.84;1012153;29;844;-41
2021/12/13 00:58:52;;;;;;;;;;;;;;;21.41;25.75;96543.41;1012129;29;1178;-47
2021/12/13 00:59:27;;;;;;;;;;;;;;;21.41;25.88;96545.28;1011038;29;1639;-45
2021/12/13 01:00:03;;;;;;;;;;;;;;;21.41;25.78;96543.41;1015305;29;1453;-42
2021/12/13 01:00:40;;;;;;;;;;;;;;;21.40;25.86;96538.41;1014885;29;1775;-46
2021/12/13 01:01:10;;;;;;;;;;;;;;;21.41;25.71;96542.63;1016865;29;1089;-47
2021/12/13 01:01:40;;;;;;;;;;;;;;;21.40;25.79;96548.94;1016999;29;1228;-41
2021/12/13 01:02:26;;;;;;;;;;;;;;;21.41;26.05;96542.63;1016800;29;1459;-43
2021/12/13 01:02:59;;;;;;;;;;;;;;;21.41;25.75;96545.28;1016714;29;1270;-48
2021/12/13 01:03:38;;;;;;;;;;;;;;;21.39;25.79;96542.88;1017064;29;1126;-42
2021/12/13 01:04:09;;;;;;;;;;;;;;;21.38;25.86;96543.94;1016011;29;1226;-40
2021/12/13 01:05:00;;;;;;;;;;;;;;;21.39;25.87;96544.75;1016429;29;1885;-40
2021/12/13 01:05:48;;;;;;;;;;;;;;;21.41;25.94;96545.28;1017113;29;1911;-43
2021/12/13 01:06:37;;;;;;;;;;;;;;;21.41;25.97;96540.00;1017158;29;1171;-40
2021/12/13 01:07:26;;;;;;;;;;;;;;;21.41;25.98;96545.28;1016294;29;2076;-43
2021/12/13 01:08:09;;;;;;;;;;;;;;;21.39;25.71;96545.50;1015909;29;1941;-40
2021/12/13 01:08:51;;;;;;;;;;;;;;;21.39;25.75;96544.75;1014382;29;2174;-40
2021/12/13 01:09:21;;;;;;;;;;;;;;;21.40;25.85;96543.66;1015862;29;2217;-40
2021/12/13 01:09:55;;;;;;;;;;;;;;;21.39;25.73;96547.38;1015567;29;1888;-42
2021/12/13 01:10:44;;;;;;;;;;;;;;;21.41;25.94;96547.91;1016146;29;1928;-40
2021/12/13 01:11:33;;;;;;;;;;;;;;;21.40;25.84;96547.09;1014980;29;3234;-40
2021/12/13 01:12:05;;;;;;;;;;;;;;;21.41;25.90;96547.91;1016777;29;1268;-40
2021/12/13 01:12:35;;;;;;;;;;;;;;;21.41;25.87;96550.53;1012725;29;1353;-40
2021/12/13 01:13:17;;;;;;;;;;;;;;;21.40;25.85;96551.59;1015685;29;1047;-42
2021/12/13 01:13:50;;;;;;;;;;;;;;;21.40;25.57;96552.38;1016807;29;1462;-41
2021/12/13 01:14:34;;;;;;;;;;;;;;;21.40;25.81;96548.94;1016611;29;1829;-40
2021/12/13 01:15:13;;;;;;;;;;;;;;;21.42;25.72;96552.13;1017253;29;1130;-42
2021/12/13 01:15:53;;;;;;;;;;;;;;;21.41;25.64;96551.31;1020358;29;1180;-45
2021/12/13 01:17:08;;;;;;;;;;;;;;;21.40;25.91;96554.22;1020766;29;1235;-46
2021/12/13 01:17:53;;;;;;;;;;;;;;;21.39;25.88;96550.00;1014165;29;1986;-43
2021/12/13 01:18:31;;;;;;;;;;;;;;;21.39;25.66;96557.94;1016917;29;1087;-42
2021/12/13 01:20:27;;;;;;;;;;;;;;;21.41;25.59;96556.59;1017037;29;1178;-43
2021/12/13 01:21:33;;;;;;;;;;;;;;;21.39;25.45;96558.69;1016203;29;1841;-47
2021/12/13 01:23:08;;;;;;;;;;;;;;;21.39;25.75;96563.19;1025669;28;2072;-39
2021/12/13 01:23:44;;;;;;;;;;;;;;;21.41;25.78;96558.47;1022028;28;2290;-39
2021/12/13 01:24:19;;;;;;;;;;;;;;;21.41;25.93;96561.09;1014336;29;2079;-46
2021/12/13 01:26:53;;;;;;;;;;;;;;;21.41;25.53;96561.09;1018046;29;1924;-40
2021/12/13 01:27:34;;;;;;;;;;;;;;;21.38;25.74;96559.75;1014245;29;2278;-44
2021/12/13 01:28:09;;;;;;;;;;;;;;;21.39;25.67;96557.94;1014760;29;2174;-44
2021/12/13 01:28:41;;;;;;;;;;;;;;;21.39;25.63;96560.56;1013338;29;2155;-39
2021/12/13 01:29:14;;;;;;;;;;;;;;;21.41;25.71;96561.09;1016281;29;1857;-41
2021/12/13 01:29:49;;;;;;;;;;;;;;;21.42;25.98;96562.66;1016497;29;2241;-40
2021/12/13 01:30:21;;;;;;;;;;;;;;;21.41;25.64;96566.38;1016277;29;2129;-41
2021/12/13 01:30:59;;;;;;;;;;;;;;;21.41;25.85;96563.72;1016928;29;1328;-50
2021/12/13 01:31:30;;;;;;;;;;;;;;;21.39;25.70;96558.69;1016932;29;1128;-42
2021/12/13 01:32:02;;;;;;;;;;;;;;;21.39;26.00;96563.97;1019987;29;1915;-40
2021/12/13 01:32:36;;;;;;;;;;;;;;;21.40;26.06;96560.28;1019860;29;1136;-46
2021/12/13 01:33:07;;;;;;;;;;;;;;;21.39;26.01;96563.97;1020483;29;1352;-44
2021/12/13 01:33:43;;;;;;;;;;;;;;;21.39;26.05;96566.59;1020027;29;1139;-47
2021/12/13 01:34:14;;;;;;;;;;;;;;;21.39;26.06;96568.47;1016305;29;2285;-41
2021/12/13 01:34:44;;;;;;;;;;;;;;;21.38;25.92;96566.88;1016048;29;2375;-40
2021/12/13 01:35:16;;;;;;;;;;;;;;;21.39;25.75;96565.84;1016653;29;1338;-43
2021/12/13 01:35:47;;;;;;;;;;;;;;;21.41;25.69;96566.38;1016599;29;1205;-43
2021/12/13 01:36:23;;;;;;;;;;;;;;;21.40;25.75;96570.03;1016789;29;1164;-41
2021/12/13 01:37:07;;;;;;;;;;;;;;;21.39;25.99;96566.59;1018802;29;1208;-42
2021/12/13 01:37:38;;;;;;;;;;;;;;;21.39;25.74;96568.47;1016873;29;1210;-41
2021/12/13 01:38:19;;;;;;;;;;;;;;;21.39;26.09;96573.75;1016860;29;1155;-45
2021/12/13 01:38:51;;;;;;;;;;;;;;;21.41;26.01;96567.13;1016887;29;1134;-40
2021/12/13 01:39:22;;;;;;;;;;;;;;;21.39;26.21;96569.25;1016863;29;1048;-42
2021/12/13 01:39:52;;;;;;;;;;;;;;;21.39;25.81;96568.47;1015451;29;2155;-42
2021/12/13 01:40:29;;;;;;;;;;;;;;;21.38;25.86;96567.69;1016595;29;1087;-48
2021/12/13 01:41:00;;;;;;;;;;;;;;;21.38;25.79;96574.78;1015848;29;1166;-44
2021/12/13 01:41:32;;;;;;;;;;;;;;;21.37;25.83;96567.94;1016329;29;1628;-45
2021/12/13 01:42:05;;;;;;;;;;;;;;;21.38;25.87;96574.78;1016479;29;1569;-43
2021/12/13 01:42:35;;;;;;;;;;;;;;;21.38;25.77;96575.59;1016373;29;1070;-42
2021/12/13 01:43:06;;;;;;;;;;;;;;;21.37;26.09;96565.31;1016690;29;1151;-42
2021/12/13 01:43:38;;;;;;;;;;;;;;;21.39;25.95;96568.47;1014012;29;1323;-41
2021/12/13 01:44:19;;;;;;;;;;;;;;;21.38;25.63;96566.88;1016973;29;1344;-42
2021/12/13 01:44:50;;;;;;;;;;;;;;;21.37;25.79;96575.84;1016066;29;1858;-42
2021/12/13 01:45:20;;;;;;;;;;;;;;;21.38;25.78;96580.06;1016994;29;1907;-42
2021/12/13 01:45:51;;;;;;;;;;;;;;;21.39;26.22;96574.53;1016942;29;1129;-42
2021/12/13 01:46:22;;;;;;;;;;;;;;;21.40;25.99;96577.94;1016626;29;1412;-40
2021/12/13 01:46:54;;;;;;;;;;;;;;;21.39;25.89;96566.59;1016248;29;2232;-40
2021/12/13 01:47:25;;;;;;;;;;;;;;;21.39;25.64;96579.78;1016863;29;1052;-39
2021/12/13 01:47:56;;;;;;;;;;;;;;;21.40;26.39;96570.03;1016922;29;1118;-41
2021/12/13 01:48:34;;;;;;;;;;;;;;;21.39;25.70;96569.25;1016417;29;1004;-42
2021/12/13 01:49:04;;;;;;;;;;;;;;;21.38;26.03;96567.69;1016490;29;1082;-43
2021/12/13 01:49:38;;;;;;;;;;;;;;;21.38;26.05;96575.59;1015963;29;1948;-45
2021/12/13 01:50:17;;;;;;;;;;;;;;;21.39;25.87;96579.03;1014133;29;964;-40
2021/12/13 01:50:51;;;;;;;;;;;;;;;21.38;25.88;96574.78;1014780;29;1676;-47
2021/12/13 01:51:25;;;;;;;;;;;;;;;21.37;25.74;96573.97;1016661;29;1445;-42
2021/12/13 01:51:56;;;;;;;;;;;;;;;21.38;26.10;96574.78;1016209;29;1725;-48
2021/12/13 01:52:33;;;;;;;;;;;;;;;21.38;26.12;96564.22;1016673;29;1096;-42
2021/12/13 01:53:03;;;;;;;;;;;;;;;21.38;25.64;96572.16;1016404;29;1135;-46
2021/12/13 01:53:33;;;;;;;;;;;;;;;21.37;25.91;96573.97;1016839;29;1169;-42
2021/12/13 01:54:13;;;;;;;;;;;;;;;21.38;25.98;96574.78;1013221;29;1316;-44
2021/12/13 01:54:44;;;;;;;;;;;;;;;21.39;26.00;96571.09;1016857;29;1166;-44
2021/12/13 01:55:23;;;;;;;;;;;;;;;21.38;25.60;96572.16;1016255;29;2241;-47
2021/12/13 01:55:55;;;;;;;;;;;;;;;21.38;25.81;96567.69;1015537;29;1793;-48
2021/12/13 01:57:40;;;;;;;;;;;;;;;21.39;25.93;96569.25;1015366;29;2036;-40
2021/12/13 01:58:36;;;;;;;;;;;;;;;21.40;25.93;96576.13;1016967;29;2259;-39
2021/12/13 01:59:44;;;;;;;;;;;;;;;21.38;25.80;96572.94;1014066;29;2318;-44
2021/12/13 02:00:21;;;;;;;;;;;;;;;21.39;25.70;96574.53;1014445;29;2193;-40
2021/12/13 02:01:10;;;;;;;;;;;;;;;21.39;25.80;96568.47;1015973;29;2131;-46
2021/12/13 02:01:43;;;;;;;;;;;;;;;21.38;25.77;96561.59;1013471;29;2211;-40
2021/12/13 02:02:14;;;;;;;;;;;;;;;21.39;26.03;96569.25;1013576;29;2114;-39
2021/12/13 02:02:45;;;;;;;;;;;;;;;21.39;25.72;96568.47;1016299;29;1161;-40
2021/12/13 02:03:16;;;;;;;;;;;;;;;21.38;25.66;96566.88;1016498;29;1077;-40
2021/12/13 02:03:55;;;;;;;;;;;;;;;21.38;25.85;96575.59;1016598;29;1371;-39
2021/12/13 02:04:26;;;;;;;;;;;;;;;21.39;25.93;96565.84;1016752;29;1557;-46
2021/12/13 02:04:59;;;;;;;;;;;;;;;21.37;25.93;96566.06;1016938;29;1165;-43
2021/12/13 02:05:30;;;;;;;;;;;;;;;21.39;26.05;96573.75;1016174;29;1969;-40
2021/12/13 02:06:00;;;;;;;;;;;;;;;21.38;25.92;96566.88;1016860;29;1237;-39
2021/12/13 02:06:41;;;;;;;;;;;;;;;21.39;25.89;96563.97;1016547;29;1606;-40
2021/12/13 02:07:11;;;;;;;;;;;;;;;21.39;25.81;96563.97;1014969;29;1568;-43
2021/12/13 02:07:42;;;;;;;;;;;;;;;21.39;25.86;96569.25;1016562;29;1134;-43
2021/12/13 02:08:15;;;;;;;;;;;;;;;21.40;25.78;96567.41;1016669;29;1075;-47
2021/12/13 02:08:46;;;;;;;;;;;;;;;21.39;26.16;96563.97;1016323;29;1217;-41
2021/12/13 02:09:20;;;;;;;;;;;;;;;21.39;25.95;96563.97;1015652;29;1376;-44
2021/12/13 02:09:59;;;;;;;;;;;;;;;21.39;26.10;96566.59;1015471;29;1558;-44
2021/12/13 02:10:38;;;;;;;;;;;;;;;21.40;25.93;96570.03;1011517;29;1844;-39
2021/12/13 02:11:09;;;;;;;;;;;;;;;21.38;25.95;96561.59;1011217;29;1375;-41
2021/12/13 02:11:45;;;;;;;;;;;;;;;21.39;25.96;96563.19;1013814;29;2241;-44
2021/12/13 02:12:18;;;;;;;;;;;;;;;21.40;26.37;96567.41;1016775;29;1223;-39
2021/12/13 02:12:56;;;;;;;;;;;;;;;21.38;26.08;96562.41;1018929;29;1121;-40
2021/12/13 02:13:37;;;;;;;;;;;;;;;21.38;26.07;96572.16;1015391;29;1029;-41
2021/12/13 02:14:14;;;;;;;;;;;;;;;21.39;25.87;96573.75;1016775;29;1286;-45
2021/12/13 02:16:55;;;;;;;;;;;;;;;21.38;25.79;96566.88;1020381;29;1738;-44
2021/12/13 02:17:51;;;;;;;;;;;;;;;21.39;25.95;96563.97;1019920;29;1255;-39
2021/12/13 02:18:26;;;;;;;;;;;;;;;21.38;25.85;96564.22;1017919;29;1517;-39
2021/12/13 02:19:08;;;;;;;;;;;;;;;21.38;26.02;96567.69;1011625;29;1883;-41
2021/12/13 02:19:57;;;;;;;;;;;;;;;21.38;26.15;96564.22;1012728;29;1783;-40
2021/12/13 02:20:29;;;;;;;;;;;;;;;21.38;25.86;96565.03;1015821;29;1870;-46
2021/12/13 02:21:07;;;;;;;;;;;;;;;21.38;25.84;96567.69;1016619;29;1190;-44
2021/12/13 02:21:37;;;;;;;;;;;;;;;21.38;25.60;96567.69;1016363;29;1382;-40
2021/12/13 02:22:30;;;;;;;;;;;;;;;21.38;26.15;96572.94;1012338;29;1600;-40
2021/12/13 02:23:20;;;;;;;;;;;;;;;21.39;25.99;96565.84;1011509;29;1247;-39
2021/12/13 02:23:57;;;;;;;;;;;;;;;21.38;25.93;96565.03;1016429;29;1367;-39
2021/12/13 02:24:29;;;;;;;;;;;;;;;21.39;25.84;96563.97;1016761;29;1056;-40
2021/12/13 02:25:19;;;;;;;;;;;;;;;21.40;25.81;96570.03;1015026;29;1453;-42
2021/12/13 02:26:10;;;;;;;;;;;;;;;21.40;25.88;96575.31;1013769;29;1063;-41
2021/12/13 02:27:00;;;;;;;;;;;;;;;21.39;26.19;96573.75;1016783;29;1617;-41
2021/12/13 02:27:38;;;;;;;;;;;;;;;21.39;25.65;96574.53;1012407;29;1355;-41
2021/12/13 02:28:08;;;;;;;;;;;;;;;21.39;25.98;96568.47;1012414;29;1187;-39
2021/12/13 02:28:39;;;;;;;;;;;;;;;21.39;26.07;96573.75;1012317;29;1221;-41
2021/12/13 02:29:36;;;;;;;;;;;;;;;21.38;26.00;96577.41;1010352;29;2078;-42
2021/12/13 02:30:11;;;;;;;;;;;;;;;21.39;25.81;96574.53;1014658;29;1842;-42
2021/12/13 02:30:46;;;;;;;;;;;;;;;21.39;25.99;96576.38;1014810;29;2147;-40
2021/12/13 02:31:22;;;;;;;;;;;;;;;21.39;26.07;96579.03;1017092;29;1024;-43
2021/12/13 02:31:52;;;;;;;;;;;;;;;21.38;26.02;96572.94;1016651;29;1163;-44
2021/12/13 02:32:27;;;;;;;;;;;;;;;21.41;25.93;96571.66;1015682;29;1542;-40
2021/12/13 02:32:58;;;;;;;;;;;;;;;21.39;26.01;96569.25;1017008;29;1162;-41
2021/12/13 02:33:30;;;;;;;;;;;;;;;21.39;25.98;96571.09;1016940;29;1253;-40
2021/12/13 02:34:07;;;;;;;;;;;;;;;21.38;25.74;96575.59;1016812;29;1359;-43
2021/12/13 02:34:38;;;;;;;;;;;;;;;21.40;25.80;96570.03;1016623;29;1064;-43
2021/12/13 02:35:08;;;;;;;;;;;;;;;21.38;26.07;96572.94;1015614;29;1404;-41
2021/12/13 02:35:41;;;;;;;;;;;;;;;21.38;25.87;96572.94;1015794;29;1821;-40
2021/12/13 02:36:11;;;;;;;;;;;;;;;21.38;26.00;96572.94;1016999;29;1040;-43
2021/12/13 02:36:43;;;;;;;;;;;;;;;21.39;25.96;96568.47;1016854;29;1091;-43
2021/12/13 02:37:13;;;;;;;;;;;;;;;21.38;25.85;96577.41;1016885;29;1146;-43
2021/12/13 02:37:43;;;;;;;;;;;;;;;21.38;25.95;96577.41;1016778;29;1181;-42
2021/12/13 02:38:14;;;;;;;;;;;;;;;21.38;26.09;96566.88;1016886;29;1193;-40
2021/12/13 02:38:46;;;;;;;;;;;;;;;21.40;26.07;96570.03;1016297;29;1197;-40
2021/12/13 02:39:28;;;;;;;;;;;;;;;21.38;26.13;96567.69;1016922;29;1090;-45
2021/12/13 02:39:59;;;;;;;;;;;;;;;21.38;26.24;96572.16;1016959;29;1130;-43
2021/12/13 02:40:29;;;;;;;;;;;;;;;21.37;25.95;96573.97;1016009;29;1905;-43
2021/12/13 02:40:59;;;;;;;;;;;;;;;21.37;26.15;96570.56;1017250;29;1586;-42
2021/12/13 02:41:30;;;;;;;;;;;;;;;21.37;25.92;96570.56;1016351;29;1183;-40
2021/12/13 02:42:01;;;;;;;;;;;;;;;21.37;26.19;96575.84;1020052;29;1158;-42
2021/12/13 02:42:31;;;;;;;;;;;;;;;21.39;26.00;96579.03;1016497;29;1362;-43
2021/12/13 02:43:02;;;;;;;;;;;;;;;21.37;26.07;96573.97;1016077;29;1845;-40
2021/12/13 02:43:34;;;;;;;;;;;;;;;21.38;26.24;96572.16;1016945;29;1127;-40
2021/12/13 02:44:06;;;;;;;;;;;;;;;21.38;26.16;96572.94;1016993;29;1269;-43
2021/12/13 02:44:41;;;;;;;;;;;;;;;21.39;26.10;96573.75;1016607;29;1070;-42
2021/12/13 02:45:23;;;;;;;;;;;;;;;21.41;26.06;96571.66;1020008;29;1869;-39
2021/12/13 02:45:54;;;;;;;;;;;;;;;21.40;25.98;96570.03;1012599;29;2210;-44
2021/12/13 02:46:24;;;;;;;;;;;;;;;21.39;26.01;96579.78;1015135;29;1183;-42
2021/12/13 02:46:55;;;;;;;;;;;;;;;21.39;25.91;96568.47;1016730;29;1087;-44
2021/12/13 02:47:37;;;;;;;;;;;;;;;21.38;25.96;96578.22;1016139;29;1048;-41
2021/12/13 02:48:13;;;;;;;;;;;;;;;21.39;26.03;96579.03;1020655;29;817;-40
2021/12/13 02:48:51;;;;;;;;;;;;;;;21.39;26.08;96582.44;1017391;29;1145;-42
2021/12/13 02:49:21;;;;;;;;;;;;;;;21.39;26.15;96576.38;1020424;29;1021;-44
2021/12/13 02:49:51;;;;;;;;;;;;;;;21.39;26.05;96577.16;1018937;29;1165;-42
2021/12/13 02:50:24;;;;;;;;;;;;;;;21.40;26.09;96577.94;1017271;29;1142;-41
2021/12/13 02:51:15;;;;;;;;;;;;;;;21.38;26.19;96572.94;1014500;29;2175;-40
2021/12/13 02:51:55;;;;;;;;;;;;;;;21.39;25.89;96576.38;1016602;29;1346;-47
2021/12/13 02:52:26;;;;;;;;;;;;;;;21.40;25.92;96580.59;1016706;29;1032;-43
2021/12/13 02:52:57;;;;;;;;;;;;;;;21.38;25.96;96575.59;1016529;29;1098;-40
2021/12/13 02:53:53;;;;;;;;;;;;;;;21.38;26.08;96575.59;1014626;29;1459;-42
2021/12/13 02:54:25;;;;;;;;;;;;;;;21.39;25.85;96584.28;1017333;29;1760;-41
2021/12/13 02:54:57;;;;;;;;;;;;;;;21.38;25.96;96572.16;1015470;29;1881;-41
2021/12/13 02:55:28;;;;;;;;;;;;;;;21.39;26.06;96568.47;1016723;29;1558;-44
2021/12/13 02:55:59;;;;;;;;;;;;;;;21.38;26.02;96577.41;1015206;29;1813;-40
2021/12/13 02:56:30;;;;;;;;;;;;;;;21.39;26.03;96576.38;1015183;29;2293;-40
2021/12/13 02:57:01;;;;;;;;;;;;;;;21.37;26.03;96576.63;1014529;29;2151;-42
2021/12/13 02:57:39;;;;;;;;;;;;;;;21.38;25.99;96580.06;1014033;29;2198;-46
2021/12/13 02:58:11;;;;;;;;;;;;;;;21.39;26.14;96576.38;1013813;29;1923;-44
2021/12/13 02:58:41;;;;;;;;;;;;;;;21.39;25.77;96579.03;1013570;29;2062;-42
2021/12/13 02:59:12;;;;;;;;;;;;;;;21.38;25.87;96578.22;1014875;29;1761;-43
2021/12/13 02:59:49;;;;;;;;;;;;;;;21.39;26.05;96584.28;1014239;29;2027;-40
2021/12/13 03:00:20;;;;;;;;;;;;;;;21.38;25.93;96577.41;1017556;29;1859;-44
2021/12/13 03:01:05;;;;;;;;;;;;;;;21.38;25.94;96577.41;1014507;29;2246;-42
2021/12/13 03:01:38;;;;;;;;;;;;;;;21.38;25.98;96582.69;1018321;29;2006;-40
2021/12/13 03:02:25;;;;;;;;;;;;;;;21.39;26.09;96581.66;1018478;29;2303;-43
2021/12/13 03:02:56;;;;;;;;;;;;;;;21.39;26.07;96579.78;1018297;29;1855;-42
2021/12/13 03:03:28;;;;;;;;;;;;;;;21.40;26.01;96577.94;1017013;29;1832;-40
2021/12/13 03:03:59;;;;;;;;;;;;;;;21.39;26.00;96579.03;1016742;29;1307;-42
2021/12/13 03:04:29;;;;;;;;;;;;;;;21.39;26.15;96579.03;1016707;29;1072;-40
2021/12/13 03:05:00;;;;;;;;;;;;;;;21.39;26.31;96579.03;1016562;29;1166;-40
2021/12/13 03:05:33;;;;;;;;;;;;;;;21.38;26.07;96580.88;1016659;29;1910;-41
2021/12/13 03:06:04;;;;;;;;;;;;;;;21.39;26.13;96581.66;1019790;29;1405;-40
2021/12/13 03:06:36;;;;;;;;;;;;;;;21.39;26.12;96585.06;1020327;29;1016;-39
2021/12/13 03:07:06;;;;;;;;;;;;;;;21.37;26.02;96581.13;1019790;29;1701;-40
2021/12/13 03:07:38;;;;;;;;;;;;;;;21.39;26.10;96581.66;1019554;29;1228;-42
2021/12/13 03:08:19;;;;;;;;;;;;;;;21.39;26.20;96585.06;1012991;29;1110;-40
2021/12/13 03:08:50;;;;;;;;;;;;;;;21.38;26.07;96578.22;1014424;29;1101;-42
2021/12/13 03:09:22;;;;;;;;;;;;;;;21.39;26.17;96581.66;1016575;29;1084;-40
2021/12/13 03:09:53;;;;;;;;;;;;;;;21.41;26.28;96584.84;1016782;29;1213;-40
2021/12/13 03:10:25;;;;;;;;;;;;;;;21.40;25.88;96584.03;1015652;29;1650;-41
2021/12/13 03:10:59;;;;;;;;;;;;;;;21.39;26.09;96579.03;1015430;29;1909;-43
2021/12/13 03:11:32;;;;;;;;;;;;;;;21.39;26.26;96584.28;1016334;29;1138;-43
2021/12/13 03:12:03;;;;;;;;;;;;;;;21.38;26.05;96578.22;1015694;29;1817;-41
2021/12/13 03:12:34;;;;;;;;;;;;;;;21.39;26.19;96581.66;1015983;29;1893;-41
2021/12/13 03:13:04;;;;;;;;;;;;;;;21.39;25.94;96584.28;1019663;29;2193;-41
2021/12/13 03:13:34;;;;;;;;;;;;;;;21.38;26.06;96583.50;1020045;29;1123;-40
2021/12/13 03:14:05;;;;;;;;;;;;;;;21.38;25.95;96583.50;1020360;29;1301;-40